createdAt,value
2017-11-24T00:02:00.855Z,90.20
2017-11-24T00:04:29.699Z,90.20
2017-11-24T00:06:59.110Z,90.30
2017-11-24T00:09:28.566Z,90.20
2017-11-24T00:11:57.207Z,90.20
2017-11-24T00:14:26.825Z,90.30
2017-11-24T00:16:55.455Z,90.30
2017-11-24T00:19:24.100Z,90.20
2017-11-24T00:21:52.948Z,90.20
2017-11-24T00:24:21.742Z,90.20
2017-11-24T00:26:50.587Z,90.20
2017-11-24T00:29:19.380Z,90.50
2017-11-24T00:31:48.188Z,90.20
2017-11-24T00:34:17.028Z,90.50
2017-11-24T00:36:46.437Z,90.20
2017-11-24T00:39:15.129Z,90.30
2017-11-24T00:41:43.925Z,90.20
2017-11-24T00:44:12.762Z,90.10
2017-11-24T00:46:41.558Z,90.10
2017-11-24T00:49:10.355Z,90.00
2017-11-24T00:51:39.943Z,90.20
2017-11-24T00:54:08.742Z,90.00
2017-11-24T00:56:37.596Z,89.80
2017-11-24T00:59:06.395Z,89.80
2017-11-24T01:01:35.203Z,89.80
2017-11-24T01:04:04.049Z,90.00
2017-11-24T01:06:32.858Z,90.00
2017-11-24T01:09:01.705Z,90.10
2017-11-24T01:11:31.265Z,90.10
2017-11-24T01:14:00.120Z,90.10
2017-11-24T01:16:29.028Z,90.10
2017-11-24T01:18:57.828Z,90.10
2017-11-24T01:21:26.679Z,90.10
2017-11-24T01:23:56.239Z,90.00
2017-11-24T01:26:25.083Z,90.00
2017-11-24T01:28:54.650Z,90.00
2017-11-24T01:31:23.494Z,90.00
2017-11-24T01:33:52.290Z,90.00
2017-11-24T01:36:21.108Z,90.00
2017-11-24T01:38:49.983Z,90.00
2017-11-24T01:41:18.788Z,90.00
2017-11-24T01:43:47.617Z,89.80
2017-11-24T01:46:17.187Z,90.00
2017-11-24T01:48:46.146Z,89.90
2017-11-24T01:51:14.956Z,89.90
2017-11-24T01:53:43.754Z,89.90
2017-11-24T01:56:12.603Z,89.80
2017-11-24T01:58:41.122Z,89.90
2017-11-24T02:01:09.922Z,89.90
2017-11-24T02:03:38.722Z,90.00
2017-11-24T02:06:07.586Z,90.00
2017-11-24T02:08:36.425Z,90.00
2017-11-24T02:11:06.040Z,90.10
2017-11-24T02:13:35.667Z,90.20
2017-11-24T02:16:04.465Z,90.10
2017-11-24T02:18:33.327Z,90.30
2017-11-24T02:21:02.615Z,90.60
2017-11-24T02:23:31.132Z,90.30
2017-11-24T02:25:59.998Z,90.20
2017-11-24T02:28:28.841Z,90.30
2017-11-24T02:30:57.063Z,90.30
2017-11-24T02:33:25.578Z,90.60
2017-11-24T02:35:53.794Z,90.40
2017-11-24T02:38:21.978Z,90.40
2017-11-24T02:40:50.160Z,90.40
2017-11-24T02:43:18.735Z,90.40
2017-11-24T02:45:48.103Z,90.40
2017-11-24T02:48:16.337Z,90.50
2017-11-24T02:50:45.615Z,90.60
2017-11-24T02:53:13.815Z,90.50
2017-11-24T02:55:42.831Z,90.60
2017-11-24T02:58:11.767Z,90.60
2017-11-24T03:00:40.302Z,90.50
2017-11-24T03:03:08.823Z,90.50
2017-11-24T03:05:37.622Z,90.50
2017-11-24T03:08:06.822Z,90.50
2017-11-24T03:10:35.619Z,90.60
2017-11-24T03:13:04.302Z,90.60
2017-11-24T03:15:33.184Z,90.60
2017-11-24T03:18:01.984Z,90.50
2017-11-24T03:20:30.851Z,90.50
2017-11-24T03:22:59.656Z,90.60
2017-11-24T03:25:28.503Z,90.60
2017-11-24T03:27:57.348Z,90.70
2017-11-24T03:30:26.180Z,90.70
2017-11-24T03:32:55.822Z,90.70
2017-11-24T03:35:24.619Z,90.70
2017-11-24T03:37:53.487Z,90.70
2017-11-24T03:40:21.997Z,90.60
2017-11-24T03:42:50.869Z,90.60
2017-11-24T03:45:19.564Z,90.60
2017-11-24T03:47:48.405Z,90.60
2017-11-24T03:50:17.279Z,90.60
2017-11-24T03:52:45.923Z,90.90
2017-11-24T03:55:14.792Z,90.60
2017-11-24T03:57:44.374Z,90.50
2017-11-24T04:00:12.607Z,90.50
2017-11-24T04:02:41.414Z,90.40
2017-11-24T04:05:10.286Z,90.40
2017-11-24T04:07:39.970Z,90.30
2017-11-24T04:10:09.606Z,90.20
2017-11-24T04:12:38.431Z,90.20
2017-11-24T04:15:07.251Z,90.00
2017-11-24T04:17:36.744Z,89.80
2017-11-24T04:20:06.042Z,89.70
2017-11-24T04:22:34.259Z,89.70
2017-11-24T04:25:03.131Z,89.50
2017-11-24T04:27:32.738Z,89.00
2017-11-24T04:30:01.530Z,89.00
2017-11-24T04:32:30.370Z,88.80
2017-11-24T04:34:59.210Z,88.50
2017-11-24T04:37:28.053Z,88.50
2017-11-24T04:39:56.860Z,88.30
2017-11-24T04:42:25.371Z,88.30
2017-11-24T04:44:54.867Z,87.70
2017-11-24T04:47:24.448Z,87.90
2017-11-24T04:49:53.283Z,87.90
2017-11-24T04:52:22.574Z,87.80
2017-11-24T04:54:52.180Z,87.70
2017-11-24T04:57:21.757Z,87.70
2017-11-24T04:59:50.576Z,87.70
2017-11-24T05:02:20.791Z,88.00
2017-11-24T05:04:49.578Z,87.90
2017-11-24T05:07:18.426Z,88.10
2017-11-24T05:09:47.235Z,88.00
2017-11-24T05:12:16.090Z,88.20
2017-11-24T05:14:44.891Z,88.30
2017-11-24T05:17:13.713Z,88.60
2017-11-24T05:19:42.517Z,88.60
2017-11-24T05:22:11.413Z,88.80
2017-11-24T05:24:40.867Z,88.70
2017-11-24T05:27:09.691Z,88.60
2017-11-24T05:29:38.543Z,88.60
2017-11-24T05:32:07.341Z,88.60
2017-11-24T05:34:36.145Z,88.60
2017-11-24T05:37:05.041Z,88.40
2017-11-24T05:39:33.843Z,88.40
2017-11-24T05:42:02.935Z,88.30
2017-11-24T05:44:32.137Z,88.30
2017-11-24T05:47:01.140Z,88.10
2017-11-24T05:49:29.951Z,88.00
2017-11-24T05:51:59.528Z,88.00
2017-11-24T05:54:28.370Z,88.00
2017-11-24T05:56:57.187Z,88.00
2017-11-24T05:59:26.032Z,88.10
2017-11-24T06:01:55.623Z,88.20
2017-11-24T06:04:24.471Z,88.20
2017-11-24T06:06:52.650Z,88.20
2017-11-24T06:09:21.494Z,88.20
2017-11-24T06:11:51.084Z,88.30
2017-11-24T07:42:18.235Z,88.30
2017-11-24T07:44:47.058Z,86.10
2017-11-24T07:47:16.679Z,87.20
2017-11-24T07:49:46.986Z,87.20
2017-11-24T07:52:15.824Z,87.20
2017-11-24T07:54:44.620Z,87.30
2017-11-24T07:57:13.429Z,87.30
2017-11-24T07:59:42.237Z,86.70
2017-11-24T08:02:11.037Z,86.00
2017-11-24T08:04:39.883Z,85.50
2017-11-24T08:07:08.693Z,84.80
2017-11-24T08:09:38.174Z,83.70
2017-11-24T08:12:07.504Z,83.20
2017-11-24T08:14:36.376Z,82.70
2017-11-24T08:17:05.187Z,82.30
2017-11-24T08:19:33.990Z,82.10
2017-11-24T08:22:02.308Z,81.70
2017-11-24T08:24:31.132Z,81.70
2017-11-24T08:27:00.004Z,81.10
2017-11-24T08:29:28.798Z,80.80
2017-11-24T08:31:58.095Z,80.50
2017-11-24T08:34:26.935Z,80.20
2017-11-24T08:36:55.743Z,80.30
2017-11-24T08:39:25.364Z,79.60
2017-11-24T08:41:54.163Z,79.60
2017-11-24T08:44:23.007Z,79.60
2017-11-24T08:46:57.204Z,79.70
2017-11-24T08:49:31.967Z,79.50
2017-11-24T08:52:01.536Z,78.30
2017-11-24T08:54:30.345Z,78.30
2017-11-24T08:56:59.196Z,78.10
2017-11-24T08:59:28.046Z,78.00
2017-11-24T09:01:56.950Z,77.70
2017-11-24T09:04:25.766Z,77.30
2017-11-24T09:06:54.570Z,76.70
2017-11-24T09:09:23.450Z,76.50
2017-11-24T09:14:55.571Z,75.40
2017-11-24T09:17:24.411Z,75.10
2017-11-24T09:19:53.276Z,74.90
2017-11-24T09:25:05.423Z,74.40
2017-11-24T09:27:34.632Z,74.30
2017-11-24T09:30:04.111Z,73.80
2017-11-24T09:32:33.379Z,74.20
2017-11-24T09:35:02.192Z,74.30
2017-11-24T09:37:31.812Z,74.00
2017-11-24T09:40:01.384Z,74.10
2017-11-24T09:42:30.271Z,74.10
2017-11-24T09:44:59.095Z,74.30
2017-11-24T09:47:28.832Z,74.30
2017-11-24T09:49:57.643Z,74.30
2017-11-24T09:52:26.194Z,74.50
2017-11-24T09:54:55.002Z,74.40
2017-11-24T09:57:23.648Z,74.10
2017-11-24T09:59:53.296Z,74.50
2017-11-24T10:02:22.114Z,74.40
2017-11-24T10:04:50.973Z,74.60
2017-11-24T10:07:19.781Z,74.80
2017-11-24T10:09:48.703Z,74.90
2017-11-24T10:12:17.507Z,74.90
2017-11-24T10:14:47.105Z,75.40
2017-11-24T10:17:15.955Z,75.40
2017-11-24T10:19:44.754Z,75.70
2017-11-24T10:22:19.863Z,75.80
2017-11-24T10:24:48.678Z,75.80
2017-11-24T10:27:17.555Z,75.70
2017-11-24T10:29:46.357Z,75.60
2017-11-24T10:32:15.170Z,75.30
2017-11-24T10:34:44.020Z,75.30
2017-11-24T10:37:12.823Z,75.00
2017-11-24T10:39:42.451Z,74.30
2017-11-24T10:42:11.262Z,74.30
2017-11-24T10:44:40.078Z,74.00
2017-11-24T10:47:08.888Z,73.40
2017-11-24T10:49:37.782Z,72.80
2017-11-24T10:52:07.439Z,72.30
2017-11-24T10:54:36.286Z,72.00
2017-11-24T10:57:05.088Z,71.70
2017-11-24T10:59:33.887Z,71.60
2017-11-24T11:02:02.743Z,71.10
2017-11-24T11:04:32.378Z,70.80
2017-11-24T11:07:01.987Z,70.30
2017-11-24T11:09:30.799Z,70.10
2017-11-24T11:11:59.653Z,69.80
2017-11-24T11:14:28.450Z,69.70
2017-11-24T11:16:57.307Z,69.30
2017-11-24T11:19:26.876Z,69.00
2017-11-24T11:21:55.727Z,69.00
2017-11-24T11:24:45.894Z,68.70
2017-11-24T11:27:15.530Z,68.90
2017-11-24T11:29:44.793Z,68.90
2017-11-24T11:32:14.379Z,68.90
2017-11-24T11:34:43.199Z,69.00
2017-11-24T11:37:12.806Z,69.00
2017-11-24T11:39:42.272Z,72.40
2017-11-24T11:42:11.101Z,72.30
2017-11-24T11:44:40.622Z,69.90
2017-11-24T11:47:10.206Z,69.80
2017-11-24T11:49:39.058Z,69.80
2017-11-24T11:52:09.107Z,69.00
2017-11-24T12:11:38.918Z,64.90
2017-11-24T12:14:07.723Z,64.10
2017-11-24T12:16:36.519Z,63.30
2017-11-24T12:19:05.323Z,63.30
2017-11-24T12:21:34.128Z,63.20
2017-11-24T12:24:11.073Z,62.40
2017-11-24T12:26:48.190Z,62.50
2017-11-24T12:35:00.675Z,62.30
2017-11-24T12:37:29.537Z,61.60
2017-11-24T12:39:59.159Z,61.60
2017-11-24T12:42:27.950Z,60.80
2017-11-24T12:44:56.738Z,60.90
2017-11-24T12:47:25.523Z,60.70
2017-11-24T12:49:55.115Z,60.20
2017-11-24T12:52:23.930Z,60.20
2017-11-24T12:54:52.738Z,60.40
2017-11-24T12:57:21.535Z,60.10
2017-11-24T12:59:51.213Z,60.30
2017-11-24T13:02:20.001Z,59.90
2017-11-24T13:04:48.575Z,59.80
2017-11-24T13:07:19.860Z,59.90
2017-11-24T13:09:48.654Z,59.90
2017-11-24T13:12:17.487Z,59.80
2017-11-24T13:14:46.271Z,59.50
2017-11-24T13:17:15.113Z,59.30
2017-11-24T13:19:43.927Z,59.70
2017-11-24T13:22:12.787Z,59.50
2017-11-24T13:24:42.512Z,59.60
2017-11-24T13:27:11.373Z,59.70
2017-11-24T13:29:40.174Z,59.80
2017-11-24T13:32:09.754Z,60.20
2017-11-24T13:34:39.412Z,60.10
2017-11-24T13:37:08.231Z,60.10
2017-11-24T13:39:36.796Z,59.90
2017-11-24T13:42:06.164Z,59.90
2017-11-24T13:44:35.014Z,59.80
2017-11-24T13:47:03.844Z,60.00
2017-11-24T13:49:32.696Z,60.30
2017-11-24T13:52:01.555Z,59.80
2017-11-24T13:54:30.357Z,60.80
2017-11-24T13:56:59.170Z,60.20
2017-11-24T13:59:28.742Z,60.50
2017-11-24T14:01:57.552Z,60.40
2017-11-24T14:04:26.359Z,60.50
2017-11-24T14:06:55.207Z,60.40
2017-11-24T14:09:24.008Z,60.40
2017-11-24T14:11:52.814Z,60.30
2017-11-24T14:14:22.130Z,60.70
2017-11-24T14:16:50.949Z,60.70
2017-11-24T14:19:19.796Z,60.90
2017-11-24T14:21:48.599Z,60.90
2017-11-24T14:24:18.220Z,61.20
2017-11-24T14:26:48.740Z,61.20
2017-11-24T14:29:18.327Z,61.70
2017-11-24T14:31:47.181Z,61.20
2017-11-24T14:34:15.999Z,61.40
2017-11-24T14:36:44.852Z,61.30
2017-11-24T14:39:13.648Z,61.60
2017-11-24T14:41:42.496Z,62.40
2017-11-24T14:44:11.782Z,61.90
2017-11-24T14:46:40.687Z,61.80
2017-11-24T14:49:09.537Z,61.90
2017-11-24T14:51:38.360Z,62.00
2017-11-24T14:54:07.231Z,62.20
2017-11-24T14:56:36.048Z,62.30
2017-11-24T14:59:04.891Z,62.50
2017-11-24T15:01:33.702Z,62.50
2017-11-24T15:04:02.558Z,62.60
2017-11-24T15:06:31.399Z,62.80
2017-11-24T15:09:01.192Z,62.80
2017-11-24T15:11:30.039Z,63.00
2017-11-24T15:13:59.610Z,63.40
2017-11-24T15:16:28.417Z,63.30
2017-11-24T15:18:57.218Z,63.50
2017-11-24T15:21:26.831Z,63.70
2017-11-24T15:23:56.397Z,63.70
2017-11-24T15:26:25.835Z,63.70
2017-11-24T15:28:54.686Z,64.00
2017-11-24T15:31:23.503Z,64.00
2017-11-24T15:33:53.851Z,64.10
2017-11-24T15:36:23.466Z,64.40
2017-11-24T15:38:52.319Z,64.20
2017-11-24T15:41:21.209Z,64.30
2017-11-24T15:43:50.046Z,64.50
2017-11-24T15:46:18.866Z,64.70
2017-11-24T15:48:47.699Z,64.70
2017-11-24T15:51:17.339Z,64.90
2017-11-24T15:53:46.148Z,64.90
2017-11-24T15:56:14.993Z,65.10
2017-11-24T15:58:44.566Z,65.20
2017-11-24T16:01:13.406Z,65.10
2017-11-24T16:03:42.930Z,65.20
2017-11-24T16:06:12.584Z,65.40
2017-11-24T16:08:41.385Z,65.50
2017-11-24T16:11:10.186Z,65.50
2017-11-24T16:13:39.796Z,65.70
2017-11-24T16:16:09.364Z,65.90
2017-11-24T16:18:38.234Z,65.80
2017-11-24T16:21:06.740Z,65.90
2017-11-24T16:23:35.611Z,66.10
2017-11-24T16:26:04.485Z,66.20
2017-11-24T16:28:34.331Z,66.20
2017-11-24T16:31:03.138Z,66.40
2017-11-24T16:33:31.986Z,66.50
2017-11-24T16:36:00.852Z,66.70
2017-11-24T16:38:30.436Z,67.00
2017-11-24T16:40:58.983Z,66.90
2017-11-24T16:43:27.836Z,67.20
2017-11-24T16:45:57.447Z,67.50
2017-11-24T16:48:26.132Z,67.40
2017-11-24T16:50:55.784Z,67.80
2017-11-24T16:53:24.583Z,67.80
2017-11-24T16:55:53.391Z,67.90
2017-11-24T16:58:22.255Z,68.00
2017-11-24T17:00:51.116Z,68.10
2017-11-24T17:03:20.020Z,68.20
2017-11-24T17:06:15.469Z,68.30
2017-11-24T17:08:44.335Z,68.40
2017-11-24T17:11:13.149Z,68.60
2017-11-24T17:13:42.601Z,68.90
2017-11-24T17:16:12.318Z,69.10
2017-11-24T17:18:41.136Z,69.10
2017-11-24T17:21:10.293Z,69.30
2017-11-24T17:23:39.123Z,69.40
2017-11-24T17:26:08.029Z,69.50
2017-11-24T17:28:36.870Z,69.60
2017-11-24T17:31:05.528Z,69.90
2017-11-24T17:33:34.383Z,70.10
2017-11-24T17:36:03.204Z,70.40
2017-11-24T17:38:32.852Z,70.40
2017-11-24T17:41:01.665Z,70.60
2017-11-24T17:43:30.529Z,70.90
2017-11-24T17:45:59.332Z,71.00
2017-11-24T17:48:28.771Z,71.20
2017-11-24T17:50:57.632Z,71.40
2017-11-24T17:53:26.458Z,71.60
2017-11-24T17:55:55.342Z,71.80
2017-11-24T17:58:24.161Z,72.00
2017-11-24T18:00:52.719Z,72.10
2017-11-24T18:03:22.382Z,72.30
2017-11-24T18:05:52.031Z,75.50
2017-11-24T18:08:20.831Z,75.80
2017-11-24T18:10:49.626Z,77.80
2017-11-24T18:13:18.365Z,79.80
2017-11-24T18:15:47.058Z,81.90
2017-11-24T18:18:16.556Z,84.90
2017-11-24T18:20:45.976Z,88.20
2017-11-24T18:23:14.679Z,88.10
2017-11-24T18:25:43.686Z,89.40
2017-11-24T18:28:13.068Z,90.30
2017-11-24T18:30:41.776Z,90.70
2017-11-24T18:33:10.662Z,91.00
2017-11-24T18:35:39.380Z,91.50
2017-11-24T18:38:08.804Z,91.80
2017-11-24T18:40:38.289Z,92.40
2017-11-24T18:43:06.956Z,92.40
2017-11-24T18:45:35.628Z,92.60
2017-11-24T18:48:04.032Z,93.00
2017-11-24T18:50:32.703Z,93.20
2017-11-24T18:53:01.812Z,93.30
2017-11-24T18:55:30.642Z,93.50
2017-11-24T18:57:59.518Z,93.70
2017-11-24T19:00:28.467Z,94.10
2017-11-24T19:02:57.279Z,94.10
2017-11-24T19:05:26.152Z,94.30
2017-11-24T19:07:54.969Z,94.60
2017-11-24T19:10:23.587Z,94.60
2017-11-24T19:12:52.400Z,95.00
2017-11-24T19:15:22.300Z,95.30
2017-11-24T19:17:51.192Z,95.50
2017-11-24T19:20:20.084Z,95.60
2017-11-24T19:22:48.929Z,96.00
2017-11-24T19:25:18.330Z,96.40
2017-11-24T19:27:47.139Z,96.70
2017-11-24T19:30:17.034Z,97.50
2017-11-24T19:32:47.065Z,97.70
2017-11-24T19:35:15.911Z,97.40
2017-11-24T19:37:44.113Z,97.50
2017-11-24T19:40:12.971Z,97.60
2017-11-24T19:42:41.828Z,97.70
2017-11-24T19:45:11.098Z,98.50
2017-11-24T19:47:42.192Z,98.40
2017-11-24T19:50:11.030Z,98.80
2017-11-24T19:52:39.917Z,99.30
2017-11-24T19:55:08.747Z,99.90
2017-11-24T19:57:39.001Z,99.90
2017-11-24T20:00:08.448Z,99.90
2017-11-24T20:02:37.258Z,99.90
2017-11-24T20:05:06.862Z,99.90
2017-11-24T20:07:35.784Z,99.90
2017-11-24T20:10:04.945Z,99.90
2017-11-24T20:12:35.119Z,99.90
2017-11-24T20:15:04.038Z,99.90
2017-11-24T20:17:33.223Z,99.90
2017-11-24T20:20:02.049Z,99.90
2017-11-24T20:22:30.878Z,99.90
2017-11-24T20:24:59.662Z,99.90
2017-11-24T20:27:28.499Z,99.90
2017-11-24T20:29:57.295Z,99.90
2017-11-24T20:32:26.088Z,99.90
2017-11-24T20:34:54.923Z,99.90
2017-11-24T20:37:24.475Z,99.90
2017-11-24T20:39:53.348Z,99.90
2017-11-24T20:42:22.135Z,99.90
2017-11-24T20:44:50.918Z,99.90
2017-11-24T20:47:19.728Z,99.90
2017-11-24T20:49:48.515Z,99.90
2017-11-24T20:52:17.351Z,99.90
2017-11-24T20:54:46.138Z,99.90
2017-11-24T20:57:15.727Z,99.90
2017-11-24T20:59:45.376Z,99.90
2017-11-24T21:02:15.775Z,99.90
2017-11-24T21:04:44.643Z,99.90
2017-11-24T21:07:13.787Z,99.90
2017-11-24T21:09:44.824Z,99.90
2017-11-24T21:12:14.239Z,99.90
2017-11-24T21:14:44.072Z,99.90
2017-11-24T21:17:13.387Z,99.90
2017-11-24T21:19:42.201Z,99.90
2017-11-24T21:22:11.067Z,99.90
2017-11-24T21:24:39.868Z,99.90
2017-11-24T21:27:08.703Z,99.90
2017-11-24T21:29:38.266Z,99.90
2017-11-24T21:32:07.165Z,99.90
2017-11-24T21:34:35.973Z,99.90
2017-11-24T21:37:05.795Z,99.90
2017-11-24T21:39:35.412Z,99.90
2017-11-24T21:42:04.991Z,99.90
2017-11-24T21:44:34.082Z,99.90
2017-11-24T21:47:02.874Z,99.90
2017-11-24T21:49:32.130Z,99.90
2017-11-24T21:52:00.989Z,99.90
2017-11-24T21:54:31.148Z,99.90
2017-11-24T21:57:00.114Z,99.90
2017-11-24T21:59:29.471Z,99.90
2017-11-24T22:01:58.313Z,99.90
2017-11-24T22:04:27.102Z,99.90
2017-11-24T22:06:57.566Z,99.90
2017-11-24T22:09:26.891Z,99.90
2017-11-24T22:11:55.688Z,99.90
2017-11-24T22:14:25.547Z,99.90
2017-11-24T22:16:54.349Z,99.90
2017-11-24T22:19:23.220Z,99.90
2017-11-24T22:21:52.017Z,99.90
2017-11-24T22:24:20.874Z,99.90
2017-11-24T22:26:50.431Z,99.90
2017-11-24T22:29:19.123Z,99.90
2017-11-24T22:31:47.755Z,99.90
2017-11-24T22:34:17.163Z,99.90
2017-11-24T22:36:46.664Z,99.90
2017-11-24T22:39:17.826Z,99.90
2017-11-24T22:41:46.667Z,99.90
2017-11-24T22:44:15.797Z,99.90
2017-11-24T22:46:46.238Z,99.90
2017-11-24T22:49:15.844Z,99.90
2017-11-24T22:51:45.431Z,99.90
2017-11-24T22:54:14.287Z,99.90
2017-11-24T22:56:43.090Z,99.90
2017-11-24T22:59:11.953Z,99.90
2017-11-24T23:01:40.767Z,99.90
2017-11-24T23:04:09.591Z,99.90
2017-11-24T23:06:40.087Z,99.90
2017-11-24T23:09:08.902Z,99.90
2017-11-24T23:11:37.467Z,99.90
2017-11-24T23:14:06.281Z,99.90
2017-11-24T23:16:35.847Z,99.90
2017-11-24T23:19:04.701Z,99.90
2017-11-24T23:21:34.257Z,99.90
2017-11-24T23:24:03.115Z,99.90
2017-11-24T23:26:31.914Z,99.90
2017-11-24T23:29:00.742Z,99.90
2017-11-24T23:31:29.544Z,99.90
2017-11-24T23:33:58.358Z,99.90
2017-11-24T23:36:27.202Z,99.90
2017-11-24T23:38:56.043Z,99.90
2017-11-24T23:41:24.886Z,99.90
2017-11-24T23:43:53.678Z,99.90
2017-11-24T23:46:22.525Z,99.90
2017-11-24T23:48:51.366Z,99.90
2017-11-24T23:51:20.185Z,99.90
2017-11-24T23:53:49.752Z,99.90
2017-11-24T23:56:18.622Z,99.90
2017-11-24T23:58:47.414Z,99.90
